North Natick, Massachusetts
Current Conditions -  °F | °C
As of 5:53 AM on Saturday 22 Nov 2014 (Local Time) from KOWD Reporting Station
Clear Clear  
Wind Chill: 20°   Ceiling: Unl
Heat Index: 20°   Visibility: 10mi
Dew Point: 11°   Wind: 0mph
Humidity: 68%   Direction: NA
Pressure: 30.43"   Gusts: NA
Location:  42.2868°N, 71.3531°W
Report Text: KOWD 221053Z AUTO 00000KT 10SM CLR M07/M12 A3043 RMK AO2 SLP306 T10671117
Loading
Personal Weather Stations






























Interactive Weather Map New forecast layout! Learn more

10-Day Weather Forecast

Advertisements
Track Severe Weather on mobile